createdAt,value
2023-04-18T00:01:01.852Z,19.83
2023-04-18T00:04:05.086Z,17.80
2023-04-18T00:07:08.188Z,22.87
2023-04-18T00:10:12.836Z,20.30
2023-04-18T00:13:18.221Z,22.87
2023-04-18T00:16:22.312Z,20.87
2023-04-18T00:19:25.272Z,25.07
2023-04-18T00:22:28.279Z,26.60
2023-04-18T00:25:32.605Z,23.20
2023-04-18T00:28:35.555Z,25.83
2023-04-18T00:31:38.702Z,24.73
2023-04-18T00:34:41.742Z,25.07
2023-04-18T00:37:44.678Z,27.83
2023-04-18T00:40:49.058Z,31.33
2023-04-18T00:43:52.000Z,27.20
2023-04-18T00:46:55.037Z,30.03
2023-04-18T00:49:58.076Z,25.83
2023-04-18T00:53:01.020Z,27.13
2023-04-18T00:56:06.080Z,29.50
2023-04-18T00:59:10.448Z,33.23
2023-04-18T01:02:13.553Z,26.97
2023-04-18T01:05:16.739Z,28.67
2023-04-18T01:08:20.546Z,29.47
2023-04-18T01:11:25.113Z,27.30
2023-04-18T01:14:28.048Z,29.57
2023-04-18T01:17:31.583Z,26.73
2023-04-18T01:20:35.116Z,31.23
2023-04-18T01:23:38.108Z,28.23
2023-04-18T01:26:43.611Z,31.63
2023-04-18T01:29:46.694Z,29.50
2023-04-18T01:32:49.671Z,25.33
2023-04-18T01:35:52.626Z,26.83
2023-04-18T01:38:55.709Z,28.63
2023-04-18T01:42:01.326Z,27.57
2023-04-18T01:45:05.499Z,29.47
2023-04-18T01:48:08.468Z,27.50
2023-04-18T01:51:11.471Z,26.97
2023-04-18T01:54:14.648Z,26.97
2023-04-18T01:57:19.048Z,27.43
2023-04-18T02:00:22.602Z,28.27
2023-04-18T02:03:26.189Z,26.37
2023-04-18T02:06:29.812Z,26.73
2023-04-18T02:09:32.801Z,26.13
2023-04-18T02:12:37.343Z,27.07
2023-04-18T02:15:40.331Z,29.27
2023-04-18T02:18:44.503Z,26.27
2023-04-18T02:21:47.454Z,29.33
2023-04-18T02:24:50.394Z,26.53
2023-04-18T02:27:54.948Z,27.47
2023-04-18T02:30:58.184Z,26.47
2023-04-18T02:34:01.136Z,29.37
2023-04-18T02:37:04.255Z,29.07
2023-04-18T02:40:08.603Z,25.87
2023-04-18T02:43:12.872Z,29.03
2023-04-18T02:46:16.029Z,27.00
2023-04-18T02:49:19.005Z,27.87
2023-04-18T02:52:21.982Z,26.43
2023-04-18T02:55:26.857Z,25.87
2023-04-18T02:58:31.245Z,27.13
2023-04-18T03:01:34.433Z,27.77
2023-04-18T03:04:37.504Z,26.20
2023-04-18T03:07:40.501Z,27.03
2023-04-18T03:10:43.586Z,26.97
2023-04-18T03:13:47.857Z,24.47
2023-04-18T03:16:53.079Z,22.57
2023-04-18T03:19:58.041Z,26.80
2023-04-18T03:23:01.034Z,25.90
2023-04-18T03:26:05.160Z,27.13
2023-04-18T03:29:09.472Z,24.00
2023-04-18T03:32:12.582Z,20.73
2023-04-18T03:35:15.846Z,21.87
2023-04-18T03:38:18.797Z,19.97
2023-04-18T03:41:21.779Z,20.90
2023-04-18T03:44:26.091Z,19.60
2023-04-18T03:47:30.387Z,20.83
2023-04-18T03:50:33.529Z,20.13
2023-04-18T03:53:36.687Z,22.20
2023-04-18T03:56:39.733Z,19.77
2023-04-18T03:59:45.588Z,20.83
2023-04-18T04:02:49.837Z,22.67
2023-04-18T04:05:53.653Z,23.87
2023-04-18T04:08:56.725Z,21.70
2023-04-18T04:11:59.696Z,20.10
2023-04-18T04:15:04.316Z,19.90
2023-04-18T04:18:07.561Z,23.13
2023-04-18T04:21:10.582Z,21.60
2023-04-18T04:24:14.348Z,23.43
2023-04-18T04:27:18.771Z,17.73
2023-04-18T04:30:23.434Z,20.60
2023-04-18T04:33:29.325Z,21.00
2023-04-18T04:36:33.289Z,18.50
2023-04-18T04:39:36.249Z,22.60
2023-04-18T04:42:40.966Z,21.40
2023-04-18T04:45:45.486Z,20.43
2023-04-18T04:48:49.634Z,23.23
2023-04-18T04:51:52.615Z,18.27
2023-04-18T04:54:55.738Z,17.80
2023-04-18T04:57:58.713Z,20.00
2023-04-18T05:01:03.082Z,18.77
2023-04-18T05:04:06.535Z,16.83
2023-04-18T05:07:09.650Z,19.47
2023-04-18T05:10:12.648Z,21.30
2023-04-18T05:13:15.600Z,19.63
2023-04-18T05:16:20.025Z,17.23
2023-04-18T05:19:23.070Z,15.03
2023-04-18T05:22:26.558Z,14.43
2023-04-18T05:25:29.750Z,16.67
2023-04-18T05:28:33.043Z,16.73
2023-04-18T05:31:37.425Z,19.43
2023-04-18T05:34:40.807Z,15.17
2023-04-18T05:37:43.919Z,14.23
2023-04-18T05:40:46.922Z,13.00
2023-04-18T05:44:01.799Z,14.40
2023-04-18T05:47:06.844Z,14.20
2023-04-18T05:50:10.737Z,13.50
2023-04-18T05:53:13.998Z,15.97
2023-04-18T05:56:16.983Z,12.70
2023-04-18T05:59:20.608Z,12.67
2023-04-18T06:02:25.086Z,12.90
2023-04-18T06:05:28.739Z,11.53
2023-04-18T06:08:31.842Z,11.50
2023-04-18T06:11:35.661Z,10.00
2023-04-18T06:14:38.623Z,12.87
2023-04-18T06:17:43.022Z,12.10
2023-04-18T06:20:46.027Z,8.70
2023-04-18T06:23:48.973Z,10.10
2023-04-18T06:26:51.977Z,13.17
2023-04-18T06:29:55.143Z,8.07
2023-04-18T06:32:59.510Z,7.87
2023-04-18T06:36:02.565Z,8.73
2023-04-18T06:39:05.893Z,10.77
2023-04-18T06:42:08.885Z,13.47
2023-04-18T06:45:12.673Z,12.33
2023-04-18T06:48:16.998Z,13.50
2023-04-18T06:51:19.992Z,8.50
2023-04-18T06:54:22.947Z,8.93
2023-04-18T06:57:26.362Z,10.00
2023-04-18T07:00:29.438Z,9.93
2023-04-18T07:03:33.964Z,10.07
2023-04-18T07:06:37.255Z,11.37
2023-04-18T07:09:40.239Z,7.43
2023-04-18T07:12:43.244Z,7.80
2023-04-18T07:15:46.290Z,8.80
2023-04-18T07:18:51.652Z,11.00
2023-04-18T07:21:55.927Z,10.97
2023-04-18T07:24:58.835Z,8.30
2023-04-18T07:28:01.781Z,10.73
2023-04-18T07:31:04.832Z,8.23
2023-04-18T07:34:10.017Z,9.90
2023-04-18T07:37:14.861Z,9.43
2023-04-18T07:40:18.159Z,9.60
2023-04-18T07:43:21.415Z,14.23
2023-04-18T07:46:24.394Z,8.77
2023-04-18T07:49:28.801Z,12.17
2023-04-18T07:52:31.793Z,7.03
2023-04-18T07:55:34.791Z,10.03
2023-04-18T07:58:37.750Z,9.53
2023-04-18T08:01:40.748Z,8.57
2023-04-18T08:04:45.262Z,7.10
2023-04-18T08:07:48.339Z,7.17
2023-04-18T08:10:51.333Z,8.30
2023-04-18T08:13:54.289Z,9.07
2023-04-18T08:16:57.279Z,6.73
2023-04-18T08:20:04.841Z,7.87
2023-04-18T08:23:11.264Z,10.13
2023-04-18T08:26:15.355Z,8.90
2023-04-18T08:29:18.306Z,6.73
2023-04-18T08:32:21.330Z,6.63
2023-04-18T08:35:25.654Z,6.17
2023-04-18T08:38:28.724Z,9.40
2023-04-18T08:41:35.084Z,7.17
2023-04-18T08:44:38.890Z,7.07
2023-04-18T08:47:41.990Z,7.70
2023-04-18T08:50:47.652Z,8.07
2023-04-18T08:53:50.705Z,10.43
2023-04-18T08:57:05.646Z,6.63
2023-04-18T09:00:11.534Z,7.93
2023-04-18T09:03:16.632Z,8.30
2023-04-18T09:06:20.994Z,8.10
2023-04-18T09:09:27.452Z,7.43
2023-04-18T09:12:32.540Z,8.97
2023-04-18T09:15:35.478Z,6.77
2023-04-18T09:18:38.538Z,8.73
2023-04-18T09:21:46.181Z,8.10
2023-04-18T09:24:52.630Z,7.00
2023-04-18T09:27:57.259Z,6.63
2023-04-18T09:31:09.429Z,8.30
2023-04-18T09:34:24.787Z,11.60
2023-04-18T09:37:30.083Z,10.10
2023-04-18T09:40:33.421Z,8.93
2023-04-18T09:43:36.383Z,7.83
2023-04-18T09:46:39.448Z,11.80
2023-04-18T09:49:42.434Z,11.73
2023-04-18T09:52:47.938Z,8.70
2023-04-18T09:55:53.030Z,7.47
2023-04-18T09:58:58.066Z,6.70
2023-04-18T10:02:03.860Z,6.20
2023-04-18T10:05:09.070Z,7.67
2023-04-18T10:08:14.759Z,5.77
2023-04-18T10:11:19.232Z,6.27
2023-04-18T10:14:24.080Z,7.43
2023-04-18T10:17:29.536Z,6.63
2023-04-18T10:20:34.527Z,7.03
2023-04-18T10:23:40.853Z,7.23
2023-04-18T10:26:50.142Z,6.17
2023-04-18T10:29:54.903Z,4.33
2023-04-18T10:32:57.917Z,4.87
2023-04-18T10:36:13.559Z,7.00
2023-04-18T10:39:23.660Z,11.03
2023-04-18T10:42:59.199Z,5.60
2023-04-18T10:46:24.004Z,6.97
2023-04-18T10:49:33.907Z,6.63
2023-04-18T10:52:36.900Z,5.50
2023-04-18T10:55:45.679Z,5.30
2023-04-18T10:58:52.056Z,7.77
2023-04-18T11:01:57.749Z,7.60
2023-04-18T11:05:04.517Z,5.90
2023-04-18T11:08:23.485Z,5.80
2023-04-18T11:11:27.823Z,7.57
2023-04-18T11:14:40.599Z,8.13
2023-04-18T11:17:43.739Z,10.37
2023-04-18T11:20:51.167Z,6.43
2023-04-18T11:23:54.693Z,6.73
2023-04-18T11:27:00.106Z,9.00
2023-04-18T11:30:03.159Z,7.93
2023-04-18T11:33:08.169Z,6.80
2023-04-18T11:36:11.322Z,7.20
2023-04-18T11:39:14.279Z,8.10
2023-04-18T11:42:18.593Z,6.87
2023-04-18T11:45:21.578Z,5.90
2023-04-18T11:48:25.294Z,6.23
2023-04-18T11:51:36.911Z,5.13
2023-04-18T11:54:41.104Z,5.30
2023-04-18T11:57:51.786Z,4.87
2023-04-18T12:00:54.823Z,5.70
2023-04-18T12:04:02.146Z,7.43
2023-04-18T12:07:05.581Z,5.53
2023-04-18T12:10:10.092Z,5.63
2023-04-18T12:13:14.637Z,6.40
2023-04-18T12:16:17.954Z,8.57
2023-04-18T12:19:21.450Z,6.17
2023-04-18T12:22:44.964Z,5.70
2023-04-18T12:26:00.578Z,5.13
2023-04-18T12:29:05.162Z,4.80
2023-04-18T12:32:08.103Z,7.13
2023-04-18T12:35:11.134Z,5.03
2023-04-18T12:38:14.159Z,5.23
2023-04-18T12:41:17.135Z,7.20
2023-04-18T12:44:22.634Z,4.47
2023-04-18T12:47:25.701Z,4.10
2023-04-18T12:50:28.670Z,4.33
2023-04-18T12:53:31.634Z,5.97
2023-04-18T12:56:35.734Z,3.97
2023-04-18T12:59:40.046Z,3.97
2023-04-18T13:02:44.816Z,4.43
2023-04-18T13:05:47.917Z,4.13
2023-04-18T13:08:50.918Z,2.87
2023-04-18T13:11:53.911Z,4.93
2023-04-18T13:14:58.451Z,7.37
2023-04-18T13:18:06.191Z,5.70
2023-04-18T13:21:09.464Z,4.97
2023-04-18T13:24:12.431Z,4.50
2023-04-18T13:27:15.645Z,3.90
2023-04-18T13:30:19.945Z,7.67
2023-04-18T13:33:22.948Z,5.67
2023-04-18T13:36:26.913Z,5.23
2023-04-18T13:39:33.780Z,3.60
2023-04-18T13:42:38.268Z,4.03
2023-04-18T13:45:42.619Z,4.20
2023-04-18T13:48:45.768Z,5.10
2023-04-18T13:51:49.756Z,4.90
2023-04-18T13:54:52.788Z,6.63
2023-04-18T13:57:55.820Z,5.90
2023-04-18T14:01:00.794Z,5.20
2023-04-18T14:04:04.281Z,4.83
2023-04-18T14:07:07.952Z,5.30
2023-04-18T14:10:11.829Z,4.27
2023-04-18T14:13:14.930Z,4.63
2023-04-18T14:16:19.524Z,8.57
2023-04-18T14:19:22.756Z,4.03
2023-04-18T14:22:25.711Z,5.33
2023-04-18T14:25:29.815Z,4.67
2023-04-18T14:28:33.028Z,4.80
2023-04-18T14:31:37.378Z,5.67
2023-04-18T14:34:40.356Z,8.37
2023-04-18T14:37:43.965Z,4.83
2023-04-18T14:40:47.548Z,5.70
2023-04-18T14:43:50.548Z,6.20
2023-04-18T14:46:54.905Z,4.37
2023-04-18T14:49:57.841Z,4.60
2023-04-18T14:53:01.101Z,6.23
2023-04-18T14:56:04.200Z,6.07
2023-04-18T14:59:07.147Z,4.67
2023-04-18T15:02:11.476Z,5.80
2023-04-18T15:05:14.671Z,6.37
2023-04-18T15:08:17.849Z,7.77
2023-04-18T15:11:20.901Z,7.87
2023-04-18T15:14:23.861Z,5.83
2023-04-18T15:17:29.074Z,5.53
2023-04-18T15:20:34.203Z,7.03
2023-04-18T15:23:37.190Z,7.27
2023-04-18T15:26:41.006Z,5.93
2023-04-18T15:29:43.964Z,8.50
2023-04-18T15:32:48.609Z,5.07
2023-04-18T15:35:51.654Z,5.20
2023-04-18T15:38:54.758Z,5.43
2023-04-18T15:41:57.768Z,5.30
2023-04-18T15:45:00.844Z,8.10
2023-04-18T15:48:05.392Z,7.60
2023-04-18T15:51:08.356Z,5.00
2023-04-18T15:54:11.403Z,5.37
2023-04-18T15:57:14.429Z,4.60
2023-04-18T16:00:19.580Z,5.77
2023-04-18T16:03:24.752Z,4.27
2023-04-18T16:06:28.033Z,4.93
2023-04-18T16:09:31.166Z,4.90
2023-04-18T16:12:34.124Z,5.03
2023-04-18T16:15:41.375Z,5.43
2023-04-18T16:18:45.797Z,5.50
2023-04-18T16:21:49.497Z,6.73
2023-04-18T16:24:52.421Z,4.20
2023-04-18T16:27:55.538Z,6.93
2023-04-18T16:30:58.496Z,6.30
2023-04-18T16:34:03.274Z,4.70
2023-04-18T16:37:06.294Z,7.00
2023-04-18T16:40:11.144Z,5.10
2023-04-18T16:43:14.111Z,5.30
2023-04-18T16:46:17.176Z,6.07
2023-04-18T16:49:21.678Z,6.73
2023-04-18T16:52:25.204Z,5.53
2023-04-18T16:55:28.293Z,6.50
2023-04-18T16:58:31.357Z,4.70
2023-04-18T17:01:34.392Z,5.70
2023-04-18T17:04:38.841Z,5.13
2023-04-18T17:07:41.786Z,3.80
2023-04-18T17:10:44.759Z,4.57
2023-04-18T17:13:47.856Z,6.00
2023-04-18T17:16:53.336Z,6.07
2023-04-18T17:19:58.646Z,5.50
2023-04-18T17:23:01.618Z,4.13
2023-04-18T17:26:04.608Z,5.70
2023-04-18T17:29:07.591Z,5.43
2023-04-18T17:32:10.660Z,4.23
2023-04-18T17:35:15.521Z,3.80
2023-04-18T17:38:18.546Z,4.97
2023-04-18T17:41:22.369Z,4.40
2023-04-18T17:44:25.466Z,5.00
2023-04-18T17:47:28.613Z,5.10
2023-04-18T17:50:36.770Z,6.00
2023-04-18T17:53:39.777Z,5.13
2023-04-18T17:56:43.324Z,5.13
2023-04-18T17:59:46.293Z,6.13
2023-04-18T18:02:49.337Z,6.97
2023-04-18T18:05:54.945Z,5.63
2023-04-18T18:08:58.006Z,4.57
2023-04-18T18:12:01.129Z,7.33
2023-04-18T18:15:04.568Z,6.90
2023-04-18T18:18:07.567Z,6.97
2023-04-18T18:21:11.987Z,6.10
2023-04-18T18:24:15.230Z,5.93
2023-04-18T18:27:20.174Z,7.33
2023-04-18T18:30:23.228Z,9.07
2023-04-18T18:33:26.261Z,7.60
2023-04-18T18:36:31.107Z,5.57
2023-04-18T18:39:34.035Z,6.90
2023-04-18T18:42:37.557Z,7.53
2023-04-18T18:45:40.518Z,7.47
2023-04-18T18:48:43.488Z,8.07
2023-04-18T18:51:47.830Z,6.60
2023-04-18T18:54:51.010Z,6.07
2023-04-18T18:57:54.681Z,7.07
2023-04-18T19:00:58.856Z,5.17
2023-04-18T19:04:02.586Z,5.63
2023-04-18T19:07:07.256Z,8.07
2023-04-18T19:10:11.731Z,9.20
2023-04-18T19:13:14.721Z,5.33
2023-04-18T19:16:17.676Z,5.30
2023-04-18T19:19:20.673Z,7.77
2023-04-18T19:22:25.303Z,5.60
2023-04-18T19:25:28.313Z,6.10
2023-04-18T19:28:31.458Z,6.97
2023-04-18T19:31:34.524Z,9.50
2023-04-18T19:34:38.268Z,7.30
2023-04-18T19:37:43.881Z,6.03
2023-04-18T19:40:47.335Z,7.13
2023-04-18T19:43:50.323Z,6.93
2023-04-18T19:46:53.298Z,5.33
2023-04-18T19:49:56.244Z,7.83
2023-04-18T19:53:00.515Z,7.37
2023-04-18T19:56:03.534Z,8.57
2023-04-18T19:59:06.820Z,8.10
2023-04-18T20:02:09.811Z,6.03
2023-04-18T20:05:13.308Z,6.90
2023-04-18T20:08:17.785Z,9.37
2023-04-18T20:11:22.074Z,6.57
2023-04-18T20:14:25.112Z,9.13
2023-04-18T20:17:30.440Z,6.53
2023-04-18T20:20:33.497Z,8.03
2023-04-18T20:23:39.357Z,10.20
2023-04-18T20:26:42.330Z,8.10
2023-04-18T20:29:45.273Z,7.37
2023-04-18T20:32:48.247Z,9.60
2023-04-18T20:35:51.198Z,6.77
2023-04-18T20:38:55.489Z,6.73
2023-04-18T20:41:59.805Z,8.70
2023-04-18T20:45:02.891Z,5.93
2023-04-18T20:48:06.451Z,8.33
2023-04-18T20:51:09.386Z,9.03
2023-04-18T20:54:13.842Z,8.47
2023-04-18T20:57:17.110Z,7.47
2023-04-18T21:00:20.233Z,8.57
2023-04-18T21:03:23.420Z,8.93
2023-04-18T21:06:28.233Z,10.50
2023-04-18T21:09:36.661Z,9.10
2023-04-18T21:12:39.628Z,7.53
2023-04-18T21:15:43.078Z,9.03
2023-04-18T21:18:46.146Z,12.03
2023-04-18T21:21:49.129Z,7.43
2023-04-18T21:24:53.410Z,9.37
2023-04-18T21:27:56.393Z,9.80
2023-04-18T21:30:59.314Z,10.20
2023-04-18T21:34:04.214Z,6.60
2023-04-18T21:37:07.181Z,6.47
2023-04-18T21:40:12.330Z,6.37
2023-04-18T21:43:15.444Z,6.77
2023-04-18T21:46:18.939Z,6.60
2023-04-18T21:49:21.875Z,6.73
2023-04-18T21:52:24.837Z,6.70
2023-04-18T21:55:29.367Z,9.73
2023-04-18T21:58:32.402Z,9.73
2023-04-18T22:01:35.870Z,7.63
2023-04-18T22:04:42.687Z,9.20
2023-04-18T22:07:56.815Z,6.93
2023-04-18T22:11:01.649Z,9.37
2023-04-18T22:14:05.086Z,6.23
2023-04-18T22:17:09.186Z,8.07
2023-04-18T22:20:12.885Z,8.17
2023-04-18T22:23:15.872Z,7.67
2023-04-18T22:26:20.536Z,7.90
2023-04-18T22:29:23.528Z,10.43
2023-04-18T22:32:26.537Z,8.77
2023-04-18T22:35:29.571Z,17.80
2023-04-18T22:38:32.512Z,8.37
2023-04-18T22:41:36.881Z,7.47
2023-04-18T22:44:39.885Z,8.07
2023-04-18T22:47:42.909Z,10.83
2023-04-18T22:50:46.237Z,7.47
2023-04-18T22:53:49.194Z,6.50
2023-04-18T22:56:53.511Z,10.37
2023-04-18T22:59:56.495Z,7.33
2023-04-18T23:02:59.635Z,10.80
2023-04-18T23:06:02.680Z,8.57
2023-04-18T23:09:07.723Z,11.00
2023-04-18T23:12:12.013Z,10.70
2023-04-18T23:15:15.014Z,7.03
2023-04-18T23:18:18.022Z,9.27
2023-04-18T23:21:20.970Z,8.87
2023-04-18T23:24:23.988Z,7.20
2023-04-18T23:27:28.265Z,9.07
2023-04-18T23:30:31.288Z,9.13
2023-04-18T23:33:34.711Z,10.20
2023-04-18T23:36:37.885Z,6.87
2023-04-18T23:39:40.917Z,6.23
2023-04-18T23:42:45.191Z,4.70
2023-04-18T23:45:48.121Z,8.60
2023-04-18T23:48:52.096Z,6.40
2023-04-18T23:51:55.064Z,7.30
2023-04-18T23:55:00.511Z,7.57
2023-04-18T23:58:04.853Z,8.80
